createdAt,value
2022-12-19T00:01:51.696Z,127.80
2022-12-19T00:04:08.817Z,142.10
2022-12-19T00:06:22.283Z,137.20
2022-12-19T00:08:34.075Z,127.60
2022-12-19T00:10:57.946Z,131.90
2022-12-19T00:13:09.633Z,128.60
2022-12-19T00:15:21.833Z,107.20
2022-12-19T00:17:33.969Z,140.80
2022-12-19T00:19:49.005Z,110.40
2022-12-19T00:22:00.996Z,117.40
2022-12-19T00:24:20.586Z,120.40
2022-12-19T00:26:36.893Z,103.70
2022-12-19T00:28:51.826Z,121.50
2022-12-19T00:31:05.089Z,122.80
2022-12-19T00:33:17.145Z,138.00
2022-12-19T00:35:28.832Z,136.10
2022-12-19T00:37:42.814Z,122.10
2022-12-19T00:40:01.832Z,146.90
2022-12-19T00:42:13.623Z,146.60
2022-12-19T00:44:27.055Z,123.30
2022-12-19T00:46:39.252Z,124.30
2022-12-19T00:48:52.168Z,119.40
2022-12-19T00:51:08.360Z,109.40
2022-12-19T00:53:20.354Z,132.30
2022-12-19T00:55:32.247Z,120.60
2022-12-19T00:57:44.344Z,128.50
2022-12-19T00:59:56.441Z,114.30
2022-12-19T01:02:10.512Z,124.60
2022-12-19T01:04:31.274Z,124.80
2022-12-19T01:06:45.026Z,128.80
2022-12-19T01:08:57.527Z,125.00
2022-12-19T01:11:09.623Z,133.00
2022-12-19T01:13:27.350Z,111.30
2022-12-19T01:15:41.328Z,137.90
2022-12-19T01:17:53.399Z,137.00
2022-12-19T01:20:05.794Z,89.00
2022-12-19T01:22:18.404Z,114.10
2022-12-19T01:24:31.115Z,128.00
2022-12-19T01:26:43.315Z,122.70
2022-12-19T01:28:55.143Z,105.30
2022-12-19T01:31:07.308Z,112.00
2022-12-19T01:33:21.347Z,136.90
2022-12-19T01:35:33.143Z,115.40
2022-12-19T01:37:45.440Z,111.50
2022-12-19T01:39:57.125Z,137.20
2022-12-19T01:42:23.522Z,133.00
2022-12-19T01:44:36.783Z,109.40
2022-12-19T01:46:52.976Z,129.90
2022-12-19T01:49:10.603Z,119.20
2022-12-19T01:51:33.860Z,129.90
2022-12-19T01:53:53.126Z,116.00
2022-12-19T01:56:08.508Z,140.60
2022-12-19T01:58:21.076Z,122.30
2022-12-19T02:00:32.791Z,114.40
2022-12-19T02:02:52.749Z,127.00
2022-12-19T02:05:05.970Z,98.60
2022-12-19T02:07:20.213Z,117.20
2022-12-19T02:09:32.831Z,82.60
2022-12-19T02:11:44.723Z,108.80
2022-12-19T02:14:00.820Z,125.80
2022-12-19T02:16:30.916Z,116.80
2022-12-19T02:18:46.305Z,115.70
2022-12-19T02:21:06.190Z,104.30
2022-12-19T02:23:39.996Z,123.60
2022-12-19T02:26:18.819Z,109.00
2022-12-19T02:29:02.929Z,94.20
2022-12-19T02:31:31.025Z,113.60
2022-12-19T02:33:56.184Z,109.50
2022-12-19T02:36:16.150Z,104.30
2022-12-19T02:38:41.080Z,105.30
2022-12-19T02:41:10.535Z,101.10
2022-12-19T02:43:24.887Z,107.50
2022-12-19T02:45:39.807Z,104.50
2022-12-19T02:47:52.057Z,124.50
2022-12-19T02:50:05.814Z,117.50
2022-12-19T02:52:20.345Z,94.30
2022-12-19T02:54:34.290Z,108.00
2022-12-19T02:57:00.619Z,112.30
2022-12-19T02:59:24.186Z,78.70
2022-12-19T03:01:42.344Z,101.90
2022-12-19T03:04:17.672Z,92.10
2022-12-19T03:06:42.874Z,100.80
2022-12-19T03:09:04.393Z,93.70
2022-12-19T03:11:16.592Z,93.90
2022-12-19T03:13:40.062Z,108.90
2022-12-19T03:15:52.773Z,108.90
2022-12-19T03:18:06.609Z,97.10
2022-12-19T03:20:44.406Z,92.00
2022-12-19T03:22:56.199Z,94.60
2022-12-19T03:25:08.679Z,105.50
2022-12-19T03:27:33.399Z,106.40
2022-12-19T03:30:00.652Z,68.60
2022-12-19T03:32:15.546Z,75.00
2022-12-19T03:34:32.741Z,88.10
2022-12-19T03:36:48.935Z,97.00
2022-12-19T03:39:04.403Z,96.20
2022-12-19T03:41:39.541Z,88.10
2022-12-19T03:43:51.537Z,82.90
2022-12-19T03:46:14.382Z,81.00
2022-12-19T03:48:43.613Z,93.90
2022-12-19T03:51:08.484Z,83.40
2022-12-19T03:53:30.615Z,79.00
2022-12-19T03:55:49.877Z,90.70
2022-12-19T03:58:12.215Z,92.20
2022-12-19T04:00:26.364Z,76.00
2022-12-19T04:02:40.811Z,86.40
2022-12-19T04:04:58.932Z,71.10
2022-12-19T04:07:12.901Z,104.70
2022-12-19T04:09:25.101Z,98.00
2022-12-19T04:11:44.288Z,91.00
2022-12-19T04:14:01.378Z,81.60
2022-12-19T04:16:21.105Z,79.00
2022-12-19T04:18:33.965Z,79.10
2022-12-19T04:20:59.079Z,83.60
2022-12-19T04:23:37.586Z,75.50
2022-12-19T04:25:54.596Z,69.00
2022-12-19T04:28:18.781Z,73.80
2022-12-19T04:30:36.713Z,82.10
2022-12-19T04:32:50.548Z,73.80
2022-12-19T04:35:03.084Z,72.60
2022-12-19T04:37:14.746Z,86.70
2022-12-19T04:39:26.429Z,62.50
2022-12-19T04:41:38.117Z,81.10
2022-12-19T04:43:50.316Z,84.50
2022-12-19T04:46:02.002Z,89.40
2022-12-19T04:48:13.639Z,80.90
2022-12-19T04:50:25.787Z,61.10
2022-12-19T04:52:37.371Z,79.80
2022-12-19T04:54:49.165Z,74.50
2022-12-19T04:57:00.753Z,73.60
2022-12-19T04:59:12.639Z,61.40
2022-12-19T05:01:25.214Z,64.90
2022-12-19T05:03:37.505Z,86.60
2022-12-19T05:05:49.543Z,64.30
2022-12-19T05:08:01.649Z,79.30
2022-12-19T05:10:13.435Z,65.10
2022-12-19T05:12:25.256Z,88.20
2022-12-19T05:14:37.014Z,81.00
2022-12-19T05:16:49.212Z,87.00
2022-12-19T05:19:02.331Z,88.90
2022-12-19T05:21:13.903Z,70.50
2022-12-19T05:23:27.241Z,77.40
2022-12-19T05:25:39.032Z,79.60
2022-12-19T05:27:50.722Z,80.50
2022-12-19T05:30:02.515Z,65.80
2022-12-19T05:32:14.409Z,70.80
2022-12-19T05:34:26.193Z,75.60
2022-12-19T05:36:37.895Z,86.80
2022-12-19T05:38:49.973Z,75.70
2022-12-19T05:41:10.379Z,77.80
2022-12-19T05:43:22.357Z,67.90
2022-12-19T05:45:34.055Z,75.20
2022-12-19T05:47:49.528Z,80.80
2022-12-19T05:50:02.234Z,80.40
2022-12-19T05:52:14.024Z,66.80
2022-12-19T05:54:26.326Z,68.80
2022-12-19T05:56:37.914Z,70.70
2022-12-19T05:58:50.721Z,69.00
2022-12-19T06:01:11.737Z,78.50
2022-12-19T06:03:23.423Z,68.00
2022-12-19T06:05:38.483Z,80.90
2022-12-19T06:07:50.376Z,76.00
2022-12-19T06:10:02.372Z,70.20
2022-12-19T06:12:14.515Z,77.30
2022-12-19T06:14:26.880Z,70.90
2022-12-19T06:16:38.590Z,71.90
2022-12-19T06:18:50.904Z,79.20
2022-12-19T06:21:06.646Z,67.80
2022-12-19T06:23:19.361Z,79.50
2022-12-19T06:25:31.365Z,76.70
2022-12-19T06:27:42.938Z,78.60
2022-12-19T06:29:54.954Z,65.40
2022-12-19T06:32:06.822Z,82.10
2022-12-19T06:34:39.891Z,65.10
2022-12-19T06:36:57.536Z,77.70
2022-12-19T06:39:13.110Z,72.90
2022-12-19T06:41:44.508Z,85.60
2022-12-19T06:44:00.801Z,62.10
2022-12-19T06:46:12.813Z,75.20
2022-12-19T06:48:28.036Z,83.60
2022-12-19T06:50:40.023Z,69.50
2022-12-19T06:52:52.114Z,77.60
2022-12-19T06:55:04.722Z,77.90
2022-12-19T06:57:16.514Z,75.30
2022-12-19T06:59:28.946Z,76.00
2022-12-19T07:01:44.083Z,69.40
2022-12-19T07:03:57.315Z,77.60
2022-12-19T07:06:08.793Z,70.70
2022-12-19T07:08:20.948Z,73.70
2022-12-19T07:10:33.191Z,79.60
2022-12-19T07:12:45.389Z,82.50
2022-12-19T07:14:57.230Z,75.80
2022-12-19T07:17:09.276Z,79.60
2022-12-19T07:19:22.822Z,80.90
2022-12-19T07:21:35.721Z,74.80
2022-12-19T07:23:48.741Z,70.40
2022-12-19T07:26:01.354Z,65.80
2022-12-19T07:28:13.894Z,78.00
2022-12-19T07:30:25.857Z,66.00
2022-12-19T07:32:39.692Z,75.50
2022-12-19T07:34:51.273Z,83.40
2022-12-19T07:37:07.162Z,73.30
2022-12-19T07:39:19.260Z,82.20
2022-12-19T07:41:30.944Z,85.90
2022-12-19T07:43:42.870Z,77.90
2022-12-19T07:45:56.825Z,105.60
2022-12-19T07:48:08.777Z,107.90
2022-12-19T07:50:21.587Z,96.70
2022-12-19T07:52:32.969Z,81.30
2022-12-19T07:54:44.479Z,72.80
2022-12-19T07:56:56.485Z,80.30
2022-12-19T07:59:10.754Z,95.40
2022-12-19T08:01:22.915Z,88.10
2022-12-19T08:03:36.111Z,68.00
2022-12-19T08:05:47.739Z,75.40
2022-12-19T08:08:00.233Z,87.00
2022-12-19T08:10:14.918Z,71.60
2022-12-19T08:12:27.205Z,81.10
2022-12-19T08:14:39.262Z,90.00
2022-12-19T08:17:19.397Z,72.20
2022-12-19T08:19:27.459Z,95.00
2022-12-19T08:21:39.531Z,83.20
2022-12-19T08:23:51.145Z,77.50
2022-12-19T08:26:08.011Z,93.10
2022-12-19T08:28:20.112Z,72.10
2022-12-19T08:30:32.210Z,81.00
2022-12-19T08:32:45.425Z,78.90
2022-12-19T08:34:57.257Z,77.00
2022-12-19T08:37:09.441Z,94.30
2022-12-19T08:39:21.516Z,80.10
2022-12-19T08:41:33.408Z,90.20
2022-12-19T08:43:50.934Z,82.40
2022-12-19T08:46:03.650Z,79.90
2022-12-19T08:48:17.808Z,91.80
2022-12-19T08:50:29.906Z,83.70
2022-12-19T08:52:41.985Z,82.90
2022-12-19T08:54:53.782Z,89.20
2022-12-19T08:57:11.004Z,87.30
2022-12-19T08:59:31.555Z,89.60
2022-12-19T09:01:43.951Z,94.50
2022-12-19T09:05:04.763Z,93.00
2022-12-19T09:06:31.723Z,93.10
2022-12-19T09:08:44.040Z,95.50
2022-12-19T09:10:59.955Z,89.90
2022-12-19T09:13:12.356Z,88.40
2022-12-19T09:15:24.587Z,92.70
2022-12-19T09:17:36.321Z,88.70
2022-12-19T09:19:48.617Z,93.50
2022-12-19T09:22:00.925Z,94.40
2022-12-19T09:24:13.125Z,87.70
2022-12-19T09:26:27.378Z,86.20
2022-12-19T09:28:46.433Z,85.60
2022-12-19T09:31:04.333Z,93.40
2022-12-19T09:33:16.152Z,116.90
2022-12-19T09:35:30.549Z,171.20
2022-12-19T09:37:42.300Z,110.30
2022-12-19T09:39:58.721Z,91.80
2022-12-19T09:42:40.635Z,113.50
2022-12-19T09:45:16.995Z,84.40
2022-12-19T09:47:43.905Z,84.50
2022-12-19T09:49:58.762Z,81.00
2022-12-19T09:52:46.701Z,97.70
2022-12-19T09:55:21.529Z,87.40
2022-12-19T09:57:48.353Z,108.10
2022-12-19T10:00:06.336Z,105.20
2022-12-19T10:02:34.375Z,113.70
2022-12-19T10:05:31.141Z,132.80
2022-12-19T10:08:01.766Z,100.50
2022-12-19T10:12:36.267Z,101.10
2022-12-19T10:15:20.949Z,103.10
2022-12-19T10:17:58.011Z,87.90
2022-12-19T10:20:16.272Z,104.70
2022-12-19T10:22:42.403Z,115.50
2022-12-19T10:25:21.029Z,171.10
2022-12-19T10:27:57.237Z,118.20
2022-12-19T10:30:21.263Z,113.50
2022-12-19T10:32:47.000Z,120.40
2022-12-19T10:34:59.581Z,107.00
2022-12-19T10:37:26.881Z,111.10
2022-12-19T10:39:54.815Z,431.20
2022-12-19T10:42:19.731Z,787.60
2022-12-19T10:44:38.540Z,577.20
2022-12-19T10:49:18.042Z,408.10
2022-12-19T10:51:32.619Z,248.70
2022-12-19T10:53:54.105Z,212.50
2022-12-19T10:56:20.720Z,125.50
2022-12-19T11:01:02.491Z,93.80
2022-12-19T11:03:16.935Z,99.50
2022-12-19T11:05:42.556Z,220.10
2022-12-19T11:08:04.106Z,124.60
2022-12-19T11:11:43.503Z,116.50
2022-12-19T11:17:52.175Z,109.60
2022-12-19T11:19:38.970Z,116.20
2022-12-19T11:27:35.081Z,111.50
2022-12-19T11:30:41.545Z,449.20
2022-12-19T11:30:45.724Z,270.30
2022-12-19T11:32:36.520Z,182.50
2022-12-19T11:34:50.165Z,263.40
2022-12-19T11:37:21.446Z,167.90
2022-12-19T11:39:46.928Z,115.10
2022-12-19T11:42:24.211Z,97.10
2022-12-19T11:45:01.699Z,297.50
2022-12-19T11:47:28.550Z,520.80
2022-12-19T11:50:24.789Z,596.30
2022-12-19T11:53:13.013Z,232.10
2022-12-19T11:55:26.755Z,181.20
2022-12-19T11:57:41.416Z,160.50
2022-12-19T11:59:56.454Z,148.80
2022-12-19T12:02:39.099Z,112.00
2022-12-19T12:05:06.552Z,206.30
2022-12-19T12:07:41.481Z,138.00
2022-12-19T12:18:25.554Z,128.80
2022-12-19T12:21:04.074Z,155.00
2022-12-19T12:26:41.350Z,238.30
2022-12-19T12:31:06.482Z,132.80
2022-12-19T12:31:21.869Z,141.50
2022-12-19T12:31:23.448Z,144.90
2022-12-19T12:31:44.604Z,168.90
2022-12-19T12:31:53.070Z,129.90
2022-12-19T12:35:40.929Z,173.00
2022-12-19T12:38:40.448Z,241.70
2022-12-19T12:41:10.077Z,159.20
2022-12-19T12:43:51.256Z,256.50
2022-12-19T12:46:05.137Z,197.70
2022-12-19T12:48:41.153Z,342.30
2022-12-19T12:50:55.378Z,160.40
2022-12-19T12:53:10.057Z,197.50
2022-12-19T12:55:30.048Z,144.60
2022-12-19T12:57:41.838Z,108.30
2022-12-19T13:00:26.794Z,145.00
2022-12-19T13:02:39.008Z,121.40
2022-12-19T13:04:58.868Z,154.80
2022-12-19T13:07:27.047Z,117.90
2022-12-19T13:12:14.799Z,129.90
2022-12-19T13:14:37.234Z,126.40
2022-12-19T13:16:50.968Z,134.20
2022-12-19T13:19:24.185Z,108.70
2022-12-19T13:22:09.545Z,105.30
2022-12-19T13:24:23.785Z,127.90
2022-12-19T13:26:50.153Z,126.50
2022-12-19T13:29:33.036Z,114.10
2022-12-19T13:32:09.305Z,108.60
2022-12-19T13:34:21.099Z,82.80
2022-12-19T13:40:00.222Z,95.50
2022-12-19T13:40:00.760Z,96.50
2022-12-19T13:42:40.396Z,138.90
2022-12-19T13:44:54.809Z,131.00
2022-12-19T13:47:06.640Z,114.20
2022-12-19T13:49:27.484Z,94.90
2022-12-19T13:52:02.472Z,88.00
2022-12-19T13:54:20.001Z,90.20
2022-12-19T13:56:32.117Z,95.90
2022-12-19T13:58:49.833Z,149.30
2022-12-19T14:01:07.811Z,789.30
2022-12-19T14:03:40.837Z,818.30
2022-12-19T14:06:15.996Z,644.20
2022-12-19T14:08:25.665Z,560.30
2022-12-19T14:11:40.295Z,610.00
2022-12-19T14:13:54.102Z,317.60
2022-12-19T14:16:18.594Z,210.50
2022-12-19T14:18:44.411Z,133.90
2022-12-19T14:22:06.855Z,102.80
2022-12-19T14:23:50.923Z,95.70
2022-12-19T14:28:17.163Z,84.00
2022-12-19T14:28:54.693Z,78.90
2022-12-19T14:31:11.866Z,72.80
2022-12-19T14:33:45.424Z,89.40
2022-12-19T14:36:14.667Z,85.80
2022-12-19T14:39:23.844Z,77.50
2022-12-19T14:41:09.562Z,82.90
2022-12-19T14:43:59.030Z,79.90
2022-12-19T14:52:35.101Z,86.30
2022-12-19T14:54:03.014Z,104.20
2022-12-19T14:54:29.350Z,157.40
2022-12-19T14:55:18.604Z,191.30
2022-12-19T14:56:59.045Z,145.50
2022-12-19T14:59:35.930Z,164.20
2022-12-19T15:01:53.938Z,116.10
2022-12-19T15:04:53.140Z,108.70
2022-12-19T15:07:08.677Z,159.70
2022-12-19T15:11:03.774Z,193.20
2022-12-19T15:14:04.135Z,139.50
2022-12-19T15:15:18.408Z,130.80
2022-12-19T15:17:29.994Z,177.10
2022-12-19T15:19:41.987Z,151.70
2022-12-19T15:21:53.880Z,153.00
2022-12-19T15:24:05.879Z,147.40
2022-12-19T15:26:32.849Z,139.20
2022-12-19T15:28:51.296Z,137.40
2022-12-19T15:31:18.799Z,208.00
2022-12-19T15:33:35.659Z,144.90
2022-12-19T15:35:47.838Z,252.80
2022-12-19T15:37:59.938Z,149.20
2022-12-19T15:40:17.071Z,124.80
2022-12-19T15:42:29.657Z,130.00
2022-12-19T15:44:43.831Z,150.30
2022-12-19T15:46:55.842Z,158.30
2022-12-19T15:49:15.519Z,124.90
2022-12-19T15:51:27.398Z,124.70
2022-12-19T15:53:41.364Z,89.10
2022-12-19T15:55:56.509Z,101.00
2022-12-19T15:58:08.361Z,102.70
2022-12-19T16:00:27.859Z,122.80
2022-12-19T16:05:12.229Z,91.30
2022-12-19T16:07:27.775Z,126.60
2022-12-19T16:09:40.280Z,91.60
2022-12-19T16:11:54.487Z,122.90
2022-12-19T16:14:12.158Z,120.60
2022-12-19T16:16:25.549Z,105.10
2022-12-19T16:18:38.122Z,140.60
2022-12-19T16:20:50.195Z,124.70
2022-12-19T16:23:02.706Z,109.60
2022-12-19T16:25:15.216Z,123.30
2022-12-19T16:27:31.916Z,118.90
2022-12-19T16:29:43.697Z,103.10
2022-12-19T16:31:55.420Z,127.10
2022-12-19T16:34:19.976Z,101.90
2022-12-19T16:36:31.867Z,198.30
2022-12-19T16:38:43.967Z,419.70
2022-12-19T16:40:57.396Z,448.30
2022-12-19T16:43:28.847Z,418.00
2022-12-19T16:45:40.552Z,299.40
2022-12-19T16:47:53.051Z,218.90
2022-12-19T16:50:18.343Z,147.70
2022-12-19T16:52:30.647Z,204.00
2022-12-19T16:54:42.349Z,193.60
2022-12-19T16:56:54.801Z,150.90
2022-12-19T16:59:15.751Z,120.10
2022-12-19T17:01:29.290Z,123.80
2022-12-19T17:03:44.932Z,107.40
2022-12-19T17:05:56.856Z,127.50
2022-12-19T17:08:13.687Z,114.80
2022-12-19T17:10:33.350Z,105.60
2022-12-19T17:15:02.672Z,103.20
2022-12-19T17:17:16.085Z,103.80
2022-12-19T17:19:36.262Z,100.90
2022-12-19T17:21:49.278Z,103.30
2022-12-19T17:24:01.195Z,118.20
2022-12-19T17:26:17.593Z,111.10
2022-12-19T17:28:30.280Z,116.40
2022-12-19T17:30:48.789Z,125.30
2022-12-19T17:33:00.824Z,121.80
2022-12-19T17:35:22.523Z,120.30
2022-12-19T17:37:37.824Z,115.30
2022-12-19T17:39:49.421Z,111.30
2022-12-19T17:42:13.889Z,99.60
2022-12-19T17:44:26.062Z,113.60
2022-12-19T17:46:39.418Z,113.10
2022-12-19T17:48:54.178Z,114.70
2022-12-19T17:51:06.377Z,120.00
2022-12-19T17:53:18.479Z,107.70
2022-12-19T17:55:31.402Z,123.40
2022-12-19T17:57:43.592Z,114.50
2022-12-19T17:59:55.811Z,126.70
2022-12-19T18:02:25.334Z,113.60
2022-12-19T18:04:42.937Z,115.00
2022-12-19T18:06:56.042Z,136.70
2022-12-19T18:09:31.694Z,135.60
2022-12-19T18:11:51.717Z,109.10
2022-12-19T18:14:05.739Z,120.60
2022-12-19T18:16:23.073Z,130.80
2022-12-19T18:18:36.374Z,125.60
2022-12-19T18:20:49.236Z,129.80
2022-12-19T18:23:03.156Z,115.20
2022-12-19T18:25:22.199Z,114.20
2022-12-19T18:27:37.769Z,125.40
2022-12-19T18:29:50.510Z,130.60
2022-12-19T18:32:02.459Z,124.30
2022-12-19T18:34:26.231Z,117.40
2022-12-19T18:36:42.862Z,132.20
2022-12-19T18:38:56.727Z,112.70
2022-12-19T18:41:11.895Z,126.90
2022-12-19T18:43:25.106Z,138.10
2022-12-19T18:45:41.605Z,129.80
2022-12-19T18:48:02.574Z,136.30
2022-12-19T18:50:19.799Z,130.40
2022-12-19T18:52:32.520Z,138.40
2022-12-19T18:54:45.338Z,131.00
2022-12-19T18:56:58.157Z,151.30
2022-12-19T18:59:11.591Z,143.50
2022-12-19T19:01:28.740Z,161.10
2022-12-19T19:03:44.970Z,147.60
2022-12-19T19:05:57.803Z,134.70
2022-12-19T19:08:18.748Z,142.80
2022-12-19T19:10:36.162Z,127.50
2022-12-19T19:12:56.091Z,140.90
2022-12-19T19:15:09.421Z,141.80
2022-12-19T19:17:40.417Z,152.70
2022-12-19T19:20:10.677Z,154.90
2022-12-19T19:22:26.591Z,153.00
2022-12-19T19:24:39.072Z,132.30
2022-12-19T19:26:51.571Z,149.40
2022-12-19T19:29:04.238Z,127.60
2022-12-19T19:31:19.129Z,135.20
2022-12-19T19:33:36.979Z,149.90
2022-12-19T19:35:54.942Z,142.10
2022-12-19T19:38:08.959Z,131.90
2022-12-19T19:40:20.764Z,149.80
2022-12-19T19:42:33.149Z,146.30
2022-12-19T19:44:46.300Z,202.40
2022-12-19T19:46:58.427Z,253.10
2022-12-19T19:49:10.684Z,157.00
2022-12-19T19:51:22.868Z,196.50
2022-12-19T19:53:36.398Z,213.00
2022-12-19T19:55:57.612Z,207.50
2022-12-19T19:58:09.809Z,197.80
2022-12-19T20:00:22.627Z,343.00
2022-12-19T20:02:35.136Z,253.90
2022-12-19T20:04:47.453Z,269.50
2022-12-19T20:06:59.732Z,218.80
2022-12-19T20:09:11.526Z,191.90
2022-12-19T20:11:23.211Z,174.90
2022-12-19T20:13:35.325Z,210.00
2022-12-19T20:15:49.926Z,377.90
2022-12-19T20:18:01.967Z,299.90
2022-12-19T20:20:13.853Z,219.60
2022-12-19T20:22:26.155Z,186.10
2022-12-19T20:24:38.047Z,156.20
2022-12-19T20:26:49.732Z,143.00
2022-12-19T20:29:02.242Z,167.60
2022-12-19T20:31:14.082Z,356.20
2022-12-19T20:33:26.536Z,314.30
2022-12-19T20:35:38.427Z,202.50
2022-12-19T20:37:50.533Z,176.90
2022-12-19T20:40:02.131Z,162.40
2022-12-19T20:42:14.004Z,146.50
2022-12-19T20:44:26.305Z,149.10
2022-12-19T20:46:38.957Z,147.40
2022-12-19T20:48:51.419Z,167.90
2022-12-19T20:51:04.952Z,177.60
2022-12-19T20:53:16.433Z,174.00
2022-12-19T20:55:28.119Z,150.30
2022-12-19T20:57:39.983Z,164.60
2022-12-19T20:59:52.620Z,145.80
2022-12-19T21:02:05.057Z,133.40
2022-12-19T21:04:17.598Z,120.90
2022-12-19T21:06:29.971Z,160.70
2022-12-19T21:08:42.346Z,159.00
2022-12-19T21:10:55.153Z,173.60
2022-12-19T21:13:06.945Z,147.80
2022-12-19T21:18:03.335Z,170.80
2022-12-19T21:20:15.606Z,134.10
2022-12-19T21:22:27.597Z,145.70
2022-12-19T21:24:39.818Z,155.80
2022-12-19T21:26:58.143Z,152.90
2022-12-19T21:29:11.663Z,154.90
2022-12-19T21:31:27.354Z,145.00
2022-12-19T21:33:39.650Z,148.00
2022-12-19T21:35:51.439Z,141.20
2022-12-19T21:38:04.797Z,146.80
2022-12-19T21:40:23.544Z,146.30
2022-12-19T21:42:36.672Z,145.70
2022-12-19T21:44:50.752Z,141.80
2022-12-19T21:47:07.990Z,152.40
2022-12-19T21:49:26.367Z,132.20
2022-12-19T21:51:38.988Z,143.50
2022-12-19T21:53:57.175Z,134.20
2022-12-19T21:56:22.342Z,127.80
2022-12-19T21:58:36.386Z,146.10
2022-12-19T22:00:49.400Z,153.60
2022-12-19T22:03:15.506Z,135.20
2022-12-19T22:05:28.207Z,139.20
2022-12-19T22:07:42.274Z,133.90
2022-12-19T22:09:55.784Z,131.50
2022-12-19T22:12:13.237Z,125.50
2022-12-19T22:14:29.756Z,130.60
2022-12-19T22:16:44.686Z,103.70
2022-12-19T22:19:07.465Z,127.30
2022-12-19T22:21:20.954Z,112.80
2022-12-19T22:23:33.438Z,111.10
2022-12-19T22:25:45.288Z,121.30
2022-12-19T22:27:57.121Z,126.80
2022-12-19T22:30:11.308Z,114.60
2022-12-19T22:32:23.366Z,116.70
2022-12-19T22:34:35.463Z,108.40
2022-12-19T22:36:49.125Z,127.60
2022-12-19T22:39:04.236Z,122.50
2022-12-19T22:41:18.109Z,115.70
2022-12-19T22:43:30.412Z,115.10
2022-12-19T22:45:42.185Z,111.20
2022-12-19T22:47:54.287Z,111.40
2022-12-19T22:50:07.012Z,105.80
2022-12-19T22:52:19.966Z,109.20
2022-12-19T22:54:32.426Z,107.80
2022-12-19T22:56:44.012Z,106.20
2022-12-19T22:58:59.387Z,105.50
2022-12-19T23:01:14.943Z,113.20
2022-12-19T23:03:27.229Z,103.10
2022-12-19T23:05:39.363Z,107.30
2022-12-19T23:07:51.149Z,103.50
2022-12-19T23:10:03.657Z,102.80
2022-12-19T23:12:15.342Z,104.00
2022-12-19T23:14:27.012Z,105.10
2022-12-19T23:16:38.984Z,100.30
2022-12-19T23:18:51.022Z,94.70
2022-12-19T23:21:09.450Z,104.30
2022-12-19T23:23:21.565Z,94.80
2022-12-19T23:25:38.274Z,89.10
2022-12-19T23:27:50.260Z,97.10
2022-12-19T23:30:01.900Z,90.30
2022-12-19T23:32:13.933Z,99.00
2022-12-19T23:34:26.044Z,92.80
2022-12-19T23:39:11.740Z,99.70
2022-12-19T23:41:24.860Z,91.90
2022-12-19T23:43:37.781Z,92.50
2022-12-19T23:45:52.265Z,85.60
2022-12-19T23:48:04.531Z,90.10
2022-12-19T23:50:16.737Z,88.10
2022-12-19T23:52:28.727Z,96.40
2022-12-19T23:54:40.415Z,93.90
2022-12-19T23:56:53.655Z,89.50
2022-12-19T23:59:05.937Z,88.60
